Time,TemperatureF,DewpointF,PressureIn,WindDirection,WindDirectionDegrees,WindSpeedMPH,WindSpeedGustMPH,Humidity,HourlyPrecipIn,Conditions,Clouds,dailyrainin,SoftwareType,DateUTC
2013-07-15 00:01:00,77.0,70.0,-100.00,East,90,4.0,6.0,80,0.00,,,-99.99,,2013-07-15 04:01:00,
2013-07-15 00:11:00,77.0,70.0,-100.00,East,80,3.0,7.0,79,0.00,,,-99.99,,2013-07-15 04:11:00,
2013-07-15 00:32:00,76.0,71.0,-100.00,ENE,65,3.0,4.0,83,0.00,,,-99.99,,2013-07-15 04:32:00,
2013-07-15 00:42:00,76.0,71.0,-100.00,East,85,2.0,6.0,81,0.00,,,-99.99,,2013-07-15 04:42:00,
2013-07-15 00:53:00,75.0,70.0,-100.00,East,95,1.0,3.0,84,0.00,,,-99.99,,2013-07-15 04:53:00,
2013-07-15 01:02:00,74.0,71.0,-100.00,East,90,1.0,4.0,87,0.00,,,-99.99,,2013-07-15 05:02:00,
2013-07-15 01:11:00,74.0,70.0,-100.00,East,95,2.0,4.0,87,0.00,,,-99.99,,2013-07-15 05:11:00,
2013-07-15 01:22:00,74.0,70.0,-100.00,East,90,2.0,4.0,88,0.00,,,-99.99,,2013-07-15 05:22:00,
2013-07-15 01:32:00,74.0,70.0,-100.00,East,100,2.0,4.0,88,0.00,,,-99.99,,2013-07-15 05:32:00,
2013-07-15 01:43:00,74.0,70.0,-100.00,East,95,1.0,4.0,88,0.00,,,-99.99,,2013-07-15 05:43:00,
2013-07-15 01:53:00,74.0,70.0,-100.00,ENE,75,1.0,4.0,87,0.00,,,-99.99,,2013-07-15 05:53:00,
2013-07-15 02:02:00,74.0,70.0,-100.00,ENE,75,2.0,3.0,88,0.00,,,-99.99,,2013-07-15 06:02:00,
2013-07-15 02:12:00,74.0,70.0,-100.00,NE,45,1.0,4.0,88,0.00,,,-99.99,,2013-07-15 06:12:00,
2013-07-15 02:32:00,74.0,70.0,-100.00,ENE,75,2.0,5.0,87,0.00,,,-99.99,,2013-07-15 06:32:00,
2013-07-15 02:42:00,74.0,70.0,-100.00,East,80,3.0,6.0,87,0.00,,,-99.99,,2013-07-15 06:42:00,
2013-07-15 04:11:00,71.0,69.0,-100.00,East,90,1.0,2.0,92,0.00,,,-99.99,,2013-07-15 08:11:00,
2013-07-15 04:53:00,72.0,70.0,-100.00,East,85,1.0,3.0,93,0.00,,,-99.99,,2013-07-15 08:53:00,
2013-07-15 05:11:00,72.0,70.0,-100.00,East,80,1.0,2.0,91,0.00,,,-99.99,,2013-07-15 09:11:00,
2013-07-15 05:22:00,72.0,69.0,-100.00,East,85,2.0,3.0,91,0.00,,,-99.99,,2013-07-15 09:22:00,
2013-07-15 05:32:00,72.0,69.0,-100.00,East,80,2.0,3.0,92,0.00,,,-99.99,,2013-07-15 09:32:00,
2013-07-15 05:43:00,72.0,70.0,-100.00,ENE,60,1.0,3.0,92,0.00,,,-99.99,,2013-07-15 09:43:00,
2013-07-15 05:52:00,71.0,69.0,-100.00,NE,40,0.0,1.0,92,0.00,,,-99.99,,2013-07-15 09:52:00,
2013-07-15 06:02:00,72.0,69.0,-100.00,NE,50,0.0,1.0,92,0.00,,,-99.99,,2013-07-15 10:02:00,
2013-07-15 06:11:00,72.0,70.0,-100.00,WNW,285,0.0,1.0,92,0.00,,,-99.99,,2013-07-15 10:11:00,
2013-07-15 06:22:00,72.0,69.0,-100.00,ESE,105,0.0,2.0,91,0.00,,,-99.99,,2013-07-15 10:22:00,
2013-07-15 06:32:00,72.0,69.0,-100.00,WNW,295,0.0,3.0,92,0.00,,,-99.99,,2013-07-15 10:32:00,
2013-07-15 06:43:00,72.0,70.0,-100.00,WSW,255,1.0,3.0,92,0.00,,,-99.99,,2013-07-15 10:43:00,
2013-07-15 06:53:00,72.0,70.0,-100.00,NE,40,1.0,2.0,92,0.00,,,-99.99,,2013-07-15 10:53:00,
2013-07-15 07:02:00,72.0,70.0,-100.00,NW,320,0.0,2.0,92,0.00,,,-99.99,,2013-07-15 11:02:00,
2013-07-15 07:11:00,72.0,70.0,-100.00,East,100,0.0,2.0,91,0.00,,,-99.99,,2013-07-15 11:11:00,
2013-07-15 07:22:00,72.0,70.0,-100.00,ESE,110,1.0,2.0,91,0.00,,,-99.99,,2013-07-15 11:22:00,
2013-07-15 07:32:00,73.0,70.0,-100.00,ESE,105,1.0,3.0,91,0.00,,,-99.99,,2013-07-15 11:32:00,
2013-07-15 07:42:00,74.0,71.0,-100.00,ESE,110,1.0,2.0,89,0.00,,,-99.99,,2013-07-15 11:42:00,
2013-07-15 08:01:00,75.0,72.0,-100.00,ESE,105,2.0,4.0,89,0.00,,,-99.99,,2013-07-15 12:01:00,
2013-07-15 08:11:00,76.0,72.0,-100.00,East,100,2.0,4.0,87,0.00,,,-99.99,,2013-07-15 12:11:00,
2013-07-15 08:22:00,76.0,73.0,-100.00,SE,125,1.0,4.0,87,0.00,,,-99.99,,2013-07-15 12:22:00,
2013-07-15 08:32:00,77.0,72.0,-100.00,SE,125,2.0,4.0,85,0.00,,,-99.99,,2013-07-15 12:32:00,
2013-07-15 08:42:00,77.0,72.0,-100.00,South,170,2.0,4.0,85,0.00,,,-99.99,,2013-07-15 12:42:00,
2013-07-15 08:52:00,78.0,73.0,-100.00,South,190,2.0,5.0,84,0.00,,,-99.99,,2013-07-15 12:52:00,
2013-07-15 09:01:00,78.0,73.0,-100.00,SSW,195,2.0,5.0,85,0.00,,,-99.99,,2013-07-15 13:01:00,
2013-07-15 09:11:00,79.0,73.0,-100.00,WSW,240,2.0,4.0,80,0.00,,,-99.99,,2013-07-15 13:11:00,
2013-07-15 09:33:00,79.0,73.0,-100.00,SSW,210,4.0,7.0,80,0.00,,,-99.99,,2013-07-15 13:33:00,
2013-07-15 09:43:00,79.0,73.0,-100.00,WSW,250,3.0,7.0,81,0.00,,,-99.99,,2013-07-15 13:43:00,
2013-07-15 10:02:00,81.0,73.0,-100.00,SW,235,4.0,8.0,78,0.00,,,-99.99,,2013-07-15 14:02:00,
2013-07-15 10:22:00,83.0,73.0,-100.00,West,260,4.0,6.0,71,0.00,,,-99.99,,2013-07-15 14:22:00,
2013-07-15 10:42:00,84.0,71.0,-100.00,WSW,255,6.0,8.0,65,0.00,,,-99.99,,2013-07-15 14:42:00,
2013-07-15 12:08:00,86.0,71.0,-100.00,South,185,4.0,8.0,59,0.00,,,-99.99,,2013-07-15 16:08:00,
2013-07-15 12:46:00,86.0,69.0,-100.00,SSW,200,6.0,9.0,56,0.00,,,-99.99,,2013-07-15 16:46:00,
2013-07-15 13:49:00,89.0,71.0,-100.00,South,180,2.0,8.0,55,0.00,,,-99.99,,2013-07-15 17:49:00,
2013-07-15 13:55:00,89.0,71.0,-100.00,South,180,2.0,8.0,55,0.00,,,-99.99,,2013-07-15 17:55:00,
2013-07-15 15:12:00,89.0,67.0,-100.00,SSW,200,1.0,9.0,48,0.00,,,-99.99,,2013-07-15 19:12:00,
2013-07-15 15:47:00,90.0,71.0,-100.00,SSE,165,2.0,9.0,54,0.00,,,-99.99,,2013-07-15 19:47:00,
2013-07-15 15:56:00,90.0,71.0,-100.00,SSE,165,2.0,9.0,54,0.00,,,-99.99,,2013-07-15 19:56:00,
2013-07-15 16:43:00,88.0,70.0,-100.00,South,190,4.0,9.0,56,0.00,,,-99.99,,2013-07-15 20:43:00,
2013-07-15 17:03:00,90.0,71.0,-100.00,South,180,4.0,9.0,53,0.00,,,-99.99,,2013-07-15 21:03:00,
2013-07-15 17:12:00,87.0,68.0,-100.00,SSW,195,3.0,10.0,53,0.00,,,-99.99,,2013-07-15 21:12:00,
2013-07-15 17:23:00,89.0,70.0,-100.00,SSW,200,6.0,9.0,53,0.00,,,-99.99,,2013-07-15 21:23:00,
2013-07-15 17:38:00,90.0,74.0,-100.00,South,190,4.0,11.0,59,0.00,,,-99.99,,2013-07-15 21:38:00,
2013-07-15 18:03:00,89.0,70.0,-100.00,SSW,200,5.0,9.0,54,0.00,,,-99.99,,2013-07-15 22:03:00,
2013-07-15 18:22:00,88.0,72.0,-100.00,SW,220,4.0,11.0,59,0.00,,,-99.99,,2013-07-15 22:22:00,
2013-07-15 18:34:00,88.0,70.0,-100.00,SW,215,6.0,9.0,55,0.00,,,-99.99,,2013-07-15 22:34:00,
2013-07-15 18:54:00,88.0,70.0,-100.00,WSW,245,7.0,10.0,54,0.00,,,-99.99,,2013-07-15 22:54:00,
2013-07-15 19:06:00,88.0,71.0,-100.00,SW,235,5.0,11.0,55,0.00,,,-99.99,,2013-07-15 23:06:00,
2013-07-15 19:13:00,88.0,69.0,-100.00,WSW,245,7.0,12.0,53,0.00,,,-99.99,,2013-07-15 23:13:00,
2013-07-15 19:28:00,88.0,70.0,-100.00,SW,215,7.0,9.0,56,0.00,,,-99.99,,2013-07-15 23:28:00,
2013-07-15 19:38:00,88.0,71.0,-100.00,SW,225,5.0,9.0,57,0.00,,,-99.99,,2013-07-15 23:38:00,
2013-07-15 19:46:00,87.0,71.0,-100.00,SW,225,6.0,9.0,57,0.00,,,-99.99,,2013-07-15 23:46:00,
2013-07-15 19:53:00,87.0,70.0,-100.00,SSW,200,6.0,7.0,56,0.00,,,-99.99,,2013-07-15 23:53:00,
2013-07-15 20:03:00,87.0,71.0,-100.00,SW,215,4.0,9.0,57,0.00,,,-99.99,,2013-07-16 00:03:00,
2013-07-15 20:16:00,87.0,71.0,-100.00,SW,225,4.0,6.0,59,0.00,,,-99.99,,2013-07-16 00:16:00,
2013-07-15 20:33:00,86.0,71.0,-100.00,SW,235,4.0,6.0,61,0.00,,,-99.99,,2013-07-16 00:33:00,
2013-07-15 20:47:00,85.0,71.0,-100.00,WSW,240,4.0,6.0,63,0.00,,,-99.99,,2013-07-16 00:47:00,
2013-07-15 20:53:00,85.0,71.0,-100.00,SW,225,3.0,4.0,65,0.00,,,-99.99,,2013-07-16 00:53:00,
2013-07-15 21:09:00,84.0,71.0,-100.00,SSW,205,4.0,5.0,65,0.00,,,-99.99,,2013-07-16 01:09:00,
2013-07-15 21:16:00,83.0,71.0,-100.00,SSW,205,4.0,6.0,67,0.00,,,-99.99,,2013-07-16 01:16:00,
2013-07-15 21:27:00,83.0,71.0,-100.00,SSW,205,4.0,6.0,67,0.00,,,-99.99,,2013-07-16 01:27:00,
2013-07-15 21:48:00,82.0,71.0,-100.00,SW,215,2.0,4.0,69,0.00,,,-99.99,,2013-07-16 01:48:00,
2013-07-15 22:05:00,82.0,71.0,-100.00,West,260,3.0,6.0,68,0.00,,,-99.99,,2013-07-16 02:05:00,
2013-07-15 22:48:00,79.0,72.0,-100.00,West,275,0.0,3.0,79,0.00,,,-99.99,,2013-07-16 02:48:00,
2013-07-15 23:28:00,77.0,72.0,-100.00,SW,235,1.0,1.0,84,0.00,,,-99.99,,2013-07-16 03:28:00,
2013-07-15 23:39:00,78.0,72.0,-100.00,WSW,240,2.0,3.0,82,0.00,,,-99.99,,2013-07-16 03:39:00,
2013-07-15 23:47:00,77.0,72.0,-100.00,SW,230,4.0,4.0,82,0.00,,,-99.99,,2013-07-16 03:47:00,